sensor_id;sensor_type;location;lat;lon;timestamp;P1;durP1;ratioP1;P2;durP2;ratioP2
5646;SDS011;2845;48.626;9.362;2022-09-01T00:02:15;6.85;;;3.53;;
5646;SDS011;2845;48.626;9.362;2022-09-01T00:04:49;7.93;;;3.75;;
5646;SDS011;2845;48.626;9.362;2022-09-01T00:07:28;8.73;;;3.63;;
5646;SDS011;2845;48.626;9.362;2022-09-01T00:10:08;6.22;;;3.35;;
5646;SDS011;2845;48.626;9.362;2022-09-01T00:12:44;5.30;;;2.95;;
5646;SDS011;2845;48.626;9.362;2022-09-01T00:15:34;5.72;;;3.22;;
5646;SDS011;2845;48.626;9.362;2022-09-01T00:18:20;5.75;;;3.45;;
5646;SDS011;2845;48.626;9.362;2022-09-01T00:21:15;6.35;;;3.47;;
5646;SDS011;2845;48.626;9.362;2022-09-01T00:23:56;6.45;;;3.17;;
5646;SDS011;2845;48.626;9.362;2022-09-01T00:26:33;5.80;;;3.53;;
5646;SDS011;2845;48.626;9.362;2022-09-01T00:29:08;6.68;;;3.78;;
5646;SDS011;2845;48.626;9.362;2022-09-01T00:31:45;5.97;;;3.13;;
5646;SDS011;2845;48.626;9.362;2022-09-01T00:34:21;7.57;;;3.47;;
5646;SDS011;2845;48.626;9.362;2022-09-01T00:36:56;6.22;;;3.45;;
5646;SDS011;2845;48.626;9.362;2022-09-01T00:39:32;5.47;;;3.38;;
5646;SDS011;2845;48.626;9.362;2022-09-01T00:42:07;7.63;;;3.70;;
5646;SDS011;2845;48.626;9.362;2022-09-01T00:44:42;6.60;;;3.33;;
5646;SDS011;2845;48.626;9.362;2022-09-01T00:47:20;7.28;;;3.90;;
5646;SDS011;2845;48.626;9.362;2022-09-01T00:49:55;7.40;;;3.60;;
5646;SDS011;2845;48.626;9.362;2022-09-01T00:52:30;6.65;;;3.42;;
5646;SDS011;2845;48.626;9.362;2022-09-01T00:55:11;7.68;;;3.72;;
5646;SDS011;2845;48.626;9.362;2022-09-01T00:57:50;6.77;;;3.83;;
5646;SDS011;2845;48.626;9.362;2022-09-01T01:00:26;6.78;;;3.60;;
5646;SDS011;2845;48.626;9.362;2022-09-01T01:03:06;7.85;;;3.50;;
5646;SDS011;2845;48.626;9.362;2022-09-01T01:05:42;5.70;;;3.40;;
5646;SDS011;2845;48.626;9.362;2022-09-01T01:08:26;8.38;;;3.70;;
5646;SDS011;2845;48.626;9.362;2022-09-01T01:11:07;8.43;;;4.18;;
5646;SDS011;2845;48.626;9.362;2022-09-01T01:13:50;5.80;;;3.45;;
5646;SDS011;2845;48.626;9.362;2022-09-01T01:16:27;6.13;;;3.78;;
5646;SDS011;2845;48.626;9.362;2022-09-01T01:19:04;7.38;;;3.63;;
5646;SDS011;2845;48.626;9.362;2022-09-01T01:22:03;6.43;;;3.85;;
5646;SDS011;2845;48.626;9.362;2022-09-01T01:25:08;5.55;;;3.38;;
5646;SDS011;2845;48.626;9.362;2022-09-01T01:27:44;8.23;;;3.80;;
5646;SDS011;2845;48.626;9.362;2022-09-01T01:30:20;5.85;;;3.78;;
5646;SDS011;2845;48.626;9.362;2022-09-01T01:32:56;6.57;;;3.55;;
5646;SDS011;2845;48.626;9.362;2022-09-01T01:35:38;11.48;;;4.18;;
5646;SDS011;2845;48.626;9.362;2022-09-01T01:38:13;8.05;;;4.05;;
5646;SDS011;2845;48.626;9.362;2022-09-01T01:40:50;6.82;;;3.08;;
5646;SDS011;2845;48.626;9.362;2022-09-01T01:43:25;6.45;;;3.90;;
5646;SDS011;2845;48.626;9.362;2022-09-01T01:46:03;6.80;;;4.10;;
5646;SDS011;2845;48.626;9.362;2022-09-01T01:48:44;5.68;;;3.60;;
5646;SDS011;2845;48.626;9.362;2022-09-01T01:51:20;6.57;;;3.88;;
5646;SDS011;2845;48.626;9.362;2022-09-01T01:54:08;5.72;;;3.10;;
5646;SDS011;2845;48.626;9.362;2022-09-01T01:56:45;6.47;;;3.47;;
5646;SDS011;2845;48.626;9.362;2022-09-01T01:59:20;7.95;;;3.38;;
5646;SDS011;2845;48.626;9.362;2022-09-01T02:01:55;6.07;;;3.38;;
5646;SDS011;2845;48.626;9.362;2022-09-01T02:04:32;6.45;;;3.65;;
5646;SDS011;2845;48.626;9.362;2022-09-01T02:07:08;5.72;;;3.03;;
5646;SDS011;2845;48.626;9.362;2022-09-01T02:09:50;7.15;;;3.80;;
5646;SDS011;2845;48.626;9.362;2022-09-01T02:12:30;6.60;;;3.60;;
5646;SDS011;2845;48.626;9.362;2022-09-01T02:15:06;8.10;;;3.40;;
5646;SDS011;2845;48.626;9.362;2022-09-01T02:17:50;5.65;;;3.42;;
5646;SDS011;2845;48.626;9.362;2022-09-01T02:20:38;5.10;;;3.20;;
5646;SDS011;2845;48.626;9.362;2022-09-01T02:23:15;8.07;;;3.55;;
5646;SDS011;2845;48.626;9.362;2022-09-01T02:25:55;6.30;;;3.53;;
5646;SDS011;2845;48.626;9.362;2022-09-01T02:28:49;6.70;;;3.38;;
5646;SDS011;2845;48.626;9.362;2022-09-01T02:31:27;7.53;;;3.00;;
5646;SDS011;2845;48.626;9.362;2022-09-01T02:36:57;5.53;;;3.10;;
5646;SDS011;2845;48.626;9.362;2022-09-01T02:39:32;7.72;;;3.72;;
5646;SDS011;2845;48.626;9.362;2022-09-01T02:42:07;5.97;;;3.00;;
5646;SDS011;2845;48.626;9.362;2022-09-01T02:44:43;6.07;;;2.90;;
5646;SDS011;2845;48.626;9.362;2022-09-01T02:47:20;6.68;;;3.28;;
5646;SDS011;2845;48.626;9.362;2022-09-01T02:50:03;5.75;;;3.00;;
5646;SDS011;2845;48.626;9.362;2022-09-01T02:52:38;6.03;;;3.13;;
5646;SDS011;2845;48.626;9.362;2022-09-01T02:55:14;7.68;;;3.40;;
5646;SDS011;2845;48.626;9.362;2022-09-01T02:57:56;7.18;;;3.47;;
5646;SDS011;2845;48.626;9.362;2022-09-01T03:00:40;6.45;;;3.55;;
5646;SDS011;2845;48.626;9.362;2022-09-01T03:03:21;6.10;;;2.95;;
5646;SDS011;2845;48.626;9.362;2022-09-01T03:09:19;5.40;;;2.97;;
5646;SDS011;2845;48.626;9.362;2022-09-01T03:11:54;6.75;;;3.40;;
5646;SDS011;2845;48.626;9.362;2022-09-01T03:14:32;6.28;;;3.55;;
5646;SDS011;2845;48.626;9.362;2022-09-01T03:17:09;5.88;;;3.42;;
5646;SDS011;2845;48.626;9.362;2022-09-01T03:25:56;8.13;;;3.65;;
5646;SDS011;2845;48.626;9.362;2022-09-01T03:28:31;6.32;;;3.47;;
5646;SDS011;2845;48.626;9.362;2022-09-01T03:31:09;6.13;;;3.20;;
5646;SDS011;2845;48.626;9.362;2022-09-01T03:33:58;7.18;;;3.55;;
5646;SDS011;2845;48.626;9.362;2022-09-01T03:36:38;7.47;;;3.47;;
5646;SDS011;2845;48.626;9.362;2022-09-01T03:39:26;4.93;;;2.75;;
5646;SDS011;2845;48.626;9.362;2022-09-01T03:42:01;9.82;;;3.85;;
5646;SDS011;2845;48.626;9.362;2022-09-01T03:44:38;6.18;;;3.83;;
5646;SDS011;2845;48.626;9.362;2022-09-01T03:47:19;6.90;;;3.60;;
5646;SDS011;2845;48.626;9.362;2022-09-01T03:49:56;6.68;;;3.38;;
5646;SDS011;2845;48.626;9.362;2022-09-01T03:52:31;5.35;;;3.42;;
5646;SDS011;2845;48.626;9.362;2022-09-01T03:55:08;8.00;;;4.05;;
5646;SDS011;2845;48.626;9.362;2022-09-01T03:57:43;6.15;;;3.63;;
5646;SDS011;2845;48.626;9.362;2022-09-01T04:00:19;9.45;;;4.10;;
5646;SDS011;2845;48.626;9.362;2022-09-01T04:02:57;6.40;;;3.60;;
5646;SDS011;2845;48.626;9.362;2022-09-01T04:08:27;5.47;;;3.23;;
5646;SDS011;2845;48.626;9.362;2022-09-01T04:11:09;6.82;;;3.70;;
5646;SDS011;2845;48.626;9.362;2022-09-01T04:13:57;5.60;;;3.33;;
5646;SDS011;2845;48.626;9.362;2022-09-01T04:16:33;6.53;;;3.40;;
5646;SDS011;2845;48.626;9.362;2022-09-01T04:19:26;6.90;;;3.42;;
5646;SDS011;2845;48.626;9.362;2022-09-01T04:22:04;6.47;;;3.38;;
5646;SDS011;2845;48.626;9.362;2022-09-01T04:24:45;5.68;;;3.25;;
5646;SDS011;2845;48.626;9.362;2022-09-01T04:27:20;6.57;;;3.33;;
5646;SDS011;2845;48.626;9.362;2022-09-01T04:30:09;6.63;;;3.72;;
5646;SDS011;2845;48.626;9.362;2022-09-01T04:32:44;6.78;;;3.90;;
5646;SDS011;2845;48.626;9.362;2022-09-01T04:35:36;6.03;;;3.67;;
5646;SDS011;2845;48.626;9.362;2022-09-01T04:38:16;5.28;;;3.13;;
5646;SDS011;2845;48.626;9.362;2022-09-01T04:40:57;6.50;;;3.67;;
5646;SDS011;2845;48.626;9.362;2022-09-01T04:43:33;5.88;;;3.50;;
5646;SDS011;2845;48.626;9.362;2022-09-01T04:46:15;6.25;;;3.47;;
5646;SDS011;2845;48.626;9.362;2022-09-01T04:48:52;5.03;;;3.38;;
5646;SDS011;2845;48.626;9.362;2022-09-01T04:51:29;6.68;;;3.60;;
5646;SDS011;2845;48.626;9.362;2022-09-01T04:54:06;6.38;;;3.45;;
5646;SDS011;2845;48.626;9.362;2022-09-01T04:56:51;5.53;;;3.03;;
5646;SDS011;2845;48.626;9.362;2022-09-01T04:59:45;4.63;;;3.15;;
5646;SDS011;2845;48.626;9.362;2022-09-01T05:06:32;5.70;;;3.47;;
5646;SDS011;2845;48.626;9.362;2022-09-01T05:09:29;5.70;;;3.22;;
5646;SDS011;2845;48.626;9.362;2022-09-01T05:12:21;5.50;;;3.25;;
5646;SDS011;2845;48.626;9.362;2022-09-01T05:14:57;5.88;;;3.65;;
5646;SDS011;2845;48.626;9.362;2022-09-01T05:17:39;5.57;;;3.35;;
5646;SDS011;2845;48.626;9.362;2022-09-01T05:20:15;6.70;;;3.65;;
5646;SDS011;2845;48.626;9.362;2022-09-01T05:22:52;5.72;;;3.65;;
5646;SDS011;2845;48.626;9.362;2022-09-01T05:25:39;6.30;;;3.72;;
5646;SDS011;2845;48.626;9.362;2022-09-01T05:31:33;5.05;;;3.10;;
5646;SDS011;2845;48.626;9.362;2022-09-01T05:34:21;5.07;;;2.90;;
5646;SDS011;2845;48.626;9.362;2022-09-01T05:37:09;5.80;;;3.13;;
5646;SDS011;2845;48.626;9.362;2022-09-01T05:39:45;6.43;;;3.90;;
5646;SDS011;2845;48.626;9.362;2022-09-01T05:42:28;4.88;;;2.90;;
5646;SDS011;2845;48.626;9.362;2022-09-01T05:45:21;6.32;;;3.40;;
5646;SDS011;2845;48.626;9.362;2022-09-01T05:51:11;9.00;;;3.72;;
5646;SDS011;2845;48.626;9.362;2022-09-01T05:54:08;4.93;;;3.08;;
5646;SDS011;2845;48.626;9.362;2022-09-01T05:56:51;5.25;;;2.90;;
5646;SDS011;2845;48.626;9.362;2022-09-01T05:59:45;5.30;;;3.08;;
5646;SDS011;2845;48.626;9.362;2022-09-01T06:02:25;5.50;;;3.10;;
5646;SDS011;2845;48.626;9.362;2022-09-01T06:08:09;8.15;;;3.88;;
5646;SDS011;2845;48.626;9.362;2022-09-01T06:10:57;7.30;;;4.35;;
5646;SDS011;2845;48.626;9.362;2022-09-01T06:13:32;7.40;;;4.00;;
5646;SDS011;2845;48.626;9.362;2022-09-01T06:16:11;8.55;;;3.92;;
5646;SDS011;2845;48.626;9.362;2022-09-01T06:18:51;6.22;;;3.90;;
5646;SDS011;2845;48.626;9.362;2022-09-01T06:21:27;5.88;;;3.70;;
5646;SDS011;2845;48.626;9.362;2022-09-01T06:24:09;7.38;;;4.15;;
5646;SDS011;2845;48.626;9.362;2022-09-01T06:26:43;5.38;;;3.30;;
5646;SDS011;2845;48.626;9.362;2022-09-01T06:29:18;6.90;;;3.35;;
5646;SDS011;2845;48.626;9.362;2022-09-01T06:31:55;7.55;;;3.47;;
5646;SDS011;2845;48.626;9.362;2022-09-01T06:34:34;8.43;;;3.70;;
5646;SDS011;2845;48.626;9.362;2022-09-01T06:43:52;9.02;;;4.18;;
5646;SDS011;2845;48.626;9.362;2022-09-01T06:50:28;7.55;;;4.35;;
5646;SDS011;2845;48.626;9.362;2022-09-01T06:53:27;7.10;;;4.00;;
5646;SDS011;2845;48.626;9.362;2022-09-01T06:56:06;10.45;;;4.68;;
5646;SDS011;2845;48.626;9.362;2022-09-01T07:08:39;10.25;;;6.50;;
5646;SDS011;2845;48.626;9.362;2022-09-01T07:22:40;11.90;;;7.07;;
5646;SDS011;2845;48.626;9.362;2022-09-01T07:25:39;9.25;;;5.53;;
5646;SDS011;2845;48.626;9.362;2022-09-01T07:28:51;10.48;;;6.55;;
5646;SDS011;2845;48.626;9.362;2022-09-01T07:31:34;10.07;;;6.45;;
5646;SDS011;2845;48.626;9.362;2022-09-01T07:34:32;9.27;;;6.40;;
5646;SDS011;2845;48.626;9.362;2022-09-01T07:37:10;10.52;;;6.55;;
5646;SDS011;2845;48.626;9.362;2022-09-01T07:40:14;9.02;;;5.75;;
5646;SDS011;2845;48.626;9.362;2022-09-01T07:43:14;10.68;;;6.38;;
5646;SDS011;2845;48.626;9.362;2022-09-01T07:46:03;12.80;;;7.30;;
5646;SDS011;2845;48.626;9.362;2022-09-01T07:48:58;10.52;;;6.45;;
5646;SDS011;2845;48.626;9.362;2022-09-01T07:52:09;10.45;;;6.50;;
5646;SDS011;2845;48.626;9.362;2022-09-01T07:55:03;9.93;;;6.10;;
5646;SDS011;2845;48.626;9.362;2022-09-01T07:57:44;7.95;;;4.72;;
5646;SDS011;2845;48.626;9.362;2022-09-01T08:00:25;7.45;;;4.20;;
5646;SDS011;2845;48.626;9.362;2022-09-01T08:03:03;8.63;;;4.93;;
5646;SDS011;2845;48.626;9.362;2022-09-01T08:05:39;6.88;;;3.72;;
5646;SDS011;2845;48.626;9.362;2022-09-01T08:08:14;7.15;;;4.43;;
5646;SDS011;2845;48.626;9.362;2022-09-01T08:11:03;5.45;;;3.25;;
5646;SDS011;2845;48.626;9.362;2022-09-01T08:13:43;7.03;;;4.13;;
5646;SDS011;2845;48.626;9.362;2022-09-01T08:16:24;6.05;;;3.65;;
5646;SDS011;2845;48.626;9.362;2022-09-01T08:25:21;5.40;;;3.22;;
5646;SDS011;2845;48.626;9.362;2022-09-01T08:28:09;4.20;;;2.58;;
5646;SDS011;2845;48.626;9.362;2022-09-01T08:30:53;4.38;;;2.63;;
5646;SDS011;2845;48.626;9.362;2022-09-01T08:33:28;5.18;;;3.10;;
5646;SDS011;2845;48.626;9.362;2022-09-01T08:36:07;5.63;;;3.10;;
5646;SDS011;2845;48.626;9.362;2022-09-01T08:38:43;4.78;;;2.50;;
5646;SDS011;2845;48.626;9.362;2022-09-01T08:41:22;7.22;;;2.65;;
5646;SDS011;2845;48.626;9.362;2022-09-01T08:44:20;4.38;;;2.53;;
5646;SDS011;2845;48.626;9.362;2022-09-01T08:47:11;3.28;;;2.30;;
5646;SDS011;2845;48.626;9.362;2022-09-01T08:50:03;3.45;;;2.28;;
5646;SDS011;2845;48.626;9.362;2022-09-01T08:55:57;3.67;;;2.00;;
5646;SDS011;2845;48.626;9.362;2022-09-01T09:01:42;2.55;;;1.77;;
5646;SDS011;2845;48.626;9.362;2022-09-01T09:04:34;3.00;;;1.88;;
5646;SDS011;2845;48.626;9.362;2022-09-01T09:10:40;3.13;;;2.00;;
5646;SDS011;2845;48.626;9.362;2022-09-01T09:13:23;4.13;;;2.55;;
5646;SDS011;2845;48.626;9.362;2022-09-01T09:19:06;3.35;;;1.98;;
5646;SDS011;2845;48.626;9.362;2022-09-01T09:22:05;3.53;;;2.10;;
5646;SDS011;2845;48.626;9.362;2022-09-01T09:24:45;4.80;;;2.40;;
5646;SDS011;2845;48.626;9.362;2022-09-01T09:27:33;3.55;;;2.60;;
5646;SDS011;2845;48.626;9.362;2022-09-01T09:30:19;3.92;;;2.10;;
5646;SDS011;2845;48.626;9.362;2022-09-01T09:44:38;4.38;;;2.10;;
5646;SDS011;2845;48.626;9.362;2022-09-01T09:50:33;3.28;;;2.00;;
5646;SDS011;2845;48.626;9.362;2022-09-01T09:56:21;3.80;;;2.28;;
5646;SDS011;2845;48.626;9.362;2022-09-01T09:59:03;3.03;;;1.90;;
5646;SDS011;2845;48.626;9.362;2022-09-01T10:08:40;4.53;;;2.20;;
5646;SDS011;2845;48.626;9.362;2022-09-01T10:14:40;3.95;;;2.03;;
5646;SDS011;2845;48.626;9.362;2022-09-01T10:17:28;2.92;;;1.60;;
5646;SDS011;2845;48.626;9.362;2022-09-01T10:20:10;3.03;;;1.70;;
5646;SDS011;2845;48.626;9.362;2022-09-01T10:22:57;3.30;;;1.60;;
5646;SDS011;2845;48.626;9.362;2022-09-01T10:28:51;2.75;;;1.95;;
5646;SDS011;2845;48.626;9.362;2022-09-01T10:34:47;3.50;;;2.00;;
5646;SDS011;2845;48.626;9.362;2022-09-01T10:44:32;3.15;;;1.85;;
5646;SDS011;2845;48.626;9.362;2022-09-01T10:47:23;2.72;;;1.90;;
5646;SDS011;2845;48.626;9.362;2022-09-01T10:50:22;2.50;;;1.50;;
5646;SDS011;2845;48.626;9.362;2022-09-01T10:56:16;3.35;;;2.00;;
5646;SDS011;2845;48.626;9.362;2022-09-01T10:59:23;4.03;;;2.03;;
5646;SDS011;2845;48.626;9.362;2022-09-01T11:02:11;3.25;;;1.90;;
5646;SDS011;2845;48.626;9.362;2022-09-01T11:09:16;2.92;;;1.65;;
5646;SDS011;2845;48.626;9.362;2022-09-01T11:20:04;2.10;;;1.50;;
5646;SDS011;2845;48.626;9.362;2022-09-01T11:23:10;2.70;;;1.80;;
5646;SDS011;2845;48.626;9.362;2022-09-01T11:33:07;2.80;;;1.80;;
5646;SDS011;2845;48.626;9.362;2022-09-01T11:39:17;3.50;;;2.40;;
5646;SDS011;2845;48.626;9.362;2022-09-01T11:42:38;2.97;;;2.05;;
5646;SDS011;2845;48.626;9.362;2022-09-01T11:49:05;3.58;;;2.35;;
5646;SDS011;2845;48.626;9.362;2022-09-01T11:56:14;3.40;;;2.03;;
5646;SDS011;2845;48.626;9.362;2022-09-01T12:06:57;2.90;;;1.80;;
5646;SDS011;2845;48.626;9.362;2022-09-01T12:09:40;4.05;;;2.17;;
5646;SDS011;2845;48.626;9.362;2022-09-01T12:27:17;2.88;;;1.70;;
5646;SDS011;2845;48.626;9.362;2022-09-01T12:30:15;2.67;;;1.65;;
5646;SDS011;2845;48.626;9.362;2022-09-01T12:36:39;2.50;;;1.45;;
5646;SDS011;2845;48.626;9.362;2022-09-01T12:39:40;2.88;;;1.70;;
5646;SDS011;2845;48.626;9.362;2022-09-01T12:42:38;2.65;;;1.88;;
5646;SDS011;2845;48.626;9.362;2022-09-01T13:01:00;4.13;;;2.33;;
5646;SDS011;2845;48.626;9.362;2022-09-01T13:07:52;2.40;;;1.55;;
5646;SDS011;2845;48.626;9.362;2022-09-01T13:14:57;3.33;;;2.20;;
5646;SDS011;2845;48.626;9.362;2022-09-01T13:24:49;2.58;;;1.90;;
5646;SDS011;2845;48.626;9.362;2022-09-01T13:31:07;2.78;;;2.00;;
5646;SDS011;2845;48.626;9.362;2022-09-01T13:34:02;2.95;;;2.08;;
5646;SDS011;2845;48.626;9.362;2022-09-01T13:36:57;3.30;;;1.90;;
5646;SDS011;2845;48.626;9.362;2022-09-01T13:39:39;2.63;;;1.73;;
5646;SDS011;2845;48.626;9.362;2022-09-01T13:42:21;2.58;;;1.90;;
5646;SDS011;2845;48.626;9.362;2022-09-01T13:45:16;2.78;;;2.00;;
5646;SDS011;2845;48.626;9.362;2022-09-01T13:48:09;3.85;;;2.08;;
5646;SDS011;2845;48.626;9.362;2022-09-01T13:54:33;3.58;;;2.17;;
5646;SDS011;2845;48.626;9.362;2022-09-01T14:01:01;1.90;;;1.55;;
5646;SDS011;2845;48.626;9.362;2022-09-01T14:03:39;2.65;;;1.67;;
5646;SDS011;2845;48.626;9.362;2022-09-01T14:06:23;2.50;;;1.80;;
5646;SDS011;2845;48.626;9.362;2022-09-01T14:09:01;2.63;;;1.67;;
5646;SDS011;2845;48.626;9.362;2022-09-01T14:12:09;1.98;;;1.67;;
5646;SDS011;2845;48.626;9.362;2022-09-01T14:15:10;3.58;;;2.08;;
5646;SDS011;2845;48.626;9.362;2022-09-01T14:18:16;2.78;;;1.85;;
5646;SDS011;2845;48.626;9.362;2022-09-01T14:32:26;3.00;;;1.67;;
5646;SDS011;2845;48.626;9.362;2022-09-01T14:35:14;2.67;;;1.88;;
5646;SDS011;2845;48.626;9.362;2022-09-01T14:37:56;2.67;;;1.60;;
5646;SDS011;2845;48.626;9.362;2022-09-01T14:40:40;2.45;;;1.80;;
5646;SDS011;2845;48.626;9.362;2022-09-01T14:43:30;2.30;;;1.60;;
5646;SDS011;2845;48.626;9.362;2022-09-01T14:52:55;2.50;;;1.60;;
5646;SDS011;2845;48.626;9.362;2022-09-01T14:55:33;2.38;;;1.35;;
5646;SDS011;2845;48.626;9.362;2022-09-01T14:58:39;2.22;;;1.70;;
5646;SDS011;2845;48.626;9.362;2022-09-01T15:01:21;2.85;;;1.80;;
5646;SDS011;2845;48.626;9.362;2022-09-01T15:04:07;2.30;;;1.60;;
5646;SDS011;2845;48.626;9.362;2022-09-01T15:12:39;2.42;;;1.80;;
5646;SDS011;2845;48.626;9.362;2022-09-01T15:15:15;2.38;;;1.80;;
5646;SDS011;2845;48.626;9.362;2022-09-01T15:24:21;2.35;;;1.58;;
5646;SDS011;2845;48.626;9.362;2022-09-01T15:27:15;2.42;;;1.83;;
5646;SDS011;2845;48.626;9.362;2022-09-01T15:29:55;2.13;;;1.73;;
5646;SDS011;2845;48.626;9.362;2022-09-01T15:32:52;3.25;;;1.88;;
5646;SDS011;2845;48.626;9.362;2022-09-01T15:35:33;2.65;;;1.70;;
5646;SDS011;2845;48.626;9.362;2022-09-01T15:38:11;2.10;;;1.70;;
5646;SDS011;2845;48.626;9.362;2022-09-01T15:41:03;2.90;;;1.80;;
5646;SDS011;2845;48.626;9.362;2022-09-01T15:43:57;4.88;;;1.88;;
5646;SDS011;2845;48.626;9.362;2022-09-01T15:46:45;2.35;;;1.70;;
5646;SDS011;2845;48.626;9.362;2022-09-01T15:52:45;2.90;;;1.52;;
5646;SDS011;2845;48.626;9.362;2022-09-01T15:55:36;2.35;;;1.60;;
5646;SDS011;2845;48.626;9.362;2022-09-01T15:58:39;2.42;;;1.77;;
5646;SDS011;2845;48.626;9.362;2022-09-01T16:01:34;2.70;;;1.95;;
5646;SDS011;2845;48.626;9.362;2022-09-01T16:04:15;2.30;;;1.83;;
5646;SDS011;2845;48.626;9.362;2022-09-01T16:06:57;3.75;;;1.73;;
5646;SDS011;2845;48.626;9.362;2022-09-01T16:09:37;2.95;;;1.75;;
5646;SDS011;2845;48.626;9.362;2022-09-01T16:12:17;2.65;;;1.80;;
5646;SDS011;2845;48.626;9.362;2022-09-01T16:14:55;4.00;;;1.67;;
5646;SDS011;2845;48.626;9.362;2022-09-01T16:21:41;3.03;;;1.85;;
5646;SDS011;2845;48.626;9.362;2022-09-01T16:24:51;3.03;;;1.90;;
5646;SDS011;2845;48.626;9.362;2022-09-01T16:27:41;3.05;;;1.70;;
5646;SDS011;2845;48.626;9.362;2022-09-01T16:30:41;2.53;;;1.88;;
5646;SDS011;2845;48.626;9.362;2022-09-01T16:33:41;2.63;;;1.77;;
5646;SDS011;2845;48.626;9.362;2022-09-01T16:36:42;3.28;;;1.90;;
5646;SDS011;2845;48.626;9.362;2022-09-01T16:39:40;3.50;;;1.90;;
5646;SDS011;2845;48.626;9.362;2022-09-01T16:42:53;2.38;;;1.70;;
5646;SDS011;2845;48.626;9.362;2022-09-01T16:48:55;2.60;;;1.63;;
5646;SDS011;2845;48.626;9.362;2022-09-01T16:55:32;3.05;;;1.80;;
5646;SDS011;2845;48.626;9.362;2022-09-01T16:59:00;2.72;;;1.80;;
5646;SDS011;2845;48.626;9.362;2022-09-01T17:02:14;2.17;;;1.38;;
5646;SDS011;2845;48.626;9.362;2022-09-01T17:08:48;3.10;;;1.60;;
5646;SDS011;2845;48.626;9.362;2022-09-01T17:11:47;2.25;;;1.45;;
5646;SDS011;2845;48.626;9.362;2022-09-01T17:14:58;2.42;;;1.45;;
5646;SDS011;2845;48.626;9.362;2022-09-01T17:18:07;2.42;;;1.45;;
5646;SDS011;2845;48.626;9.362;2022-09-01T17:21:30;2.90;;;1.60;;
5646;SDS011;2845;48.626;9.362;2022-09-01T17:24:52;2.15;;;1.40;;
5646;SDS011;2845;48.626;9.362;2022-09-01T17:27:35;3.28;;;1.52;;
5646;SDS011;2845;48.626;9.362;2022-09-01T17:30:28;2.55;;;1.45;;
5646;SDS011;2845;48.626;9.362;2022-09-01T17:33:10;2.65;;;1.50;;
5646;SDS011;2845;48.626;9.362;2022-09-01T17:36:01;2.33;;;1.50;;
5646;SDS011;2845;48.626;9.362;2022-09-01T17:39:01;2.00;;;1.33;;
5646;SDS011;2845;48.626;9.362;2022-09-01T17:41:46;2.20;;;1.42;;
5646;SDS011;2845;48.626;9.362;2022-09-01T17:44:30;3.10;;;1.70;;
5646;SDS011;2845;48.626;9.362;2022-09-01T17:47:11;3.95;;;1.83;;
5646;SDS011;2845;48.626;9.362;2022-09-01T17:49:57;3.08;;;1.50;;
5646;SDS011;2845;48.626;9.362;2022-09-01T17:52:50;2.72;;;1.55;;
5646;SDS011;2845;48.626;9.362;2022-09-01T17:55:47;2.53;;;1.50;;
5646;SDS011;2845;48.626;9.362;2022-09-01T17:58:35;2.15;;;1.75;;
5646;SDS011;2845;48.626;9.362;2022-09-01T18:01:20;2.55;;;1.60;;
5646;SDS011;2845;48.626;9.362;2022-09-01T18:04:10;2.35;;;1.60;;
5646;SDS011;2845;48.626;9.362;2022-09-01T18:10:27;2.45;;;1.40;;
5646;SDS011;2845;48.626;9.362;2022-09-01T18:13:23;2.05;;;1.38;;
5646;SDS011;2845;48.626;9.362;2022-09-01T18:16:33;2.97;;;1.58;;
5646;SDS011;2845;48.626;9.362;2022-09-01T18:19:25;2.92;;;1.83;;
5646;SDS011;2845;48.626;9.362;2022-09-01T18:22:11;2.38;;;1.52;;
5646;SDS011;2845;48.626;9.362;2022-09-01T18:24:52;4.95;;;2.00;;
5646;SDS011;2845;48.626;9.362;2022-09-01T18:27:44;2.22;;;1.55;;
5646;SDS011;2845;48.626;9.362;2022-09-01T18:30:44;2.80;;;1.80;;
5646;SDS011;2845;48.626;9.362;2022-09-01T18:33:35;3.40;;;1.90;;
5646;SDS011;2845;48.626;9.362;2022-09-01T18:36:23;3.28;;;1.75;;
5646;SDS011;2845;48.626;9.362;2022-09-01T18:39:07;3.65;;;2.08;;
5646;SDS011;2845;48.626;9.362;2022-09-01T18:41:54;3.58;;;2.20;;
5646;SDS011;2845;48.626;9.362;2022-09-01T18:44:46;4.65;;;2.00;;
5646;SDS011;2845;48.626;9.362;2022-09-01T18:47:34;3.58;;;1.90;;
5646;SDS011;2845;48.626;9.362;2022-09-01T18:50:17;3.42;;;2.05;;
5646;SDS011;2845;48.626;9.362;2022-09-01T18:53:04;3.53;;;2.13;;
5646;SDS011;2845;48.626;9.362;2022-09-01T18:55:59;2.63;;;1.70;;
5646;SDS011;2845;48.626;9.362;2022-09-01T18:58:55;4.60;;;2.00;;
5646;SDS011;2845;48.626;9.362;2022-09-01T19:01:46;3.33;;;1.77;;
5646;SDS011;2845;48.626;9.362;2022-09-01T19:04:31;3.58;;;2.28;;
5646;SDS011;2845;48.626;9.362;2022-09-01T19:07:13;3.00;;;2.00;;
5646;SDS011;2845;48.626;9.362;2022-09-01T19:09:59;2.63;;;1.92;;
5646;SDS011;2845;48.626;9.362;2022-09-01T19:12:42;3.05;;;1.75;;
5646;SDS011;2845;48.626;9.362;2022-09-01T19:15:24;2.75;;;1.85;;
5646;SDS011;2845;48.626;9.362;2022-09-01T19:18:11;2.60;;;1.63;;
5646;SDS011;2845;48.626;9.362;2022-09-01T19:23:58;3.97;;;2.10;;
5646;SDS011;2845;48.626;9.362;2022-09-01T19:26:44;3.22;;;1.77;;
5646;SDS011;2845;48.626;9.362;2022-09-01T19:29:41;3.35;;;2.00;;
5646;SDS011;2845;48.626;9.362;2022-09-01T19:32:25;3.00;;;1.75;;
5646;SDS011;2845;48.626;9.362;2022-09-01T19:35:05;3.53;;;2.23;;
5646;SDS011;2845;48.626;9.362;2022-09-01T19:37:48;5.10;;;2.13;;
5646;SDS011;2845;48.626;9.362;2022-09-01T19:40:39;4.40;;;2.00;;
5646;SDS011;2845;48.626;9.362;2022-09-01T19:43:16;4.22;;;2.22;;
5646;SDS011;2845;48.626;9.362;2022-09-01T19:45:54;3.50;;;1.73;;
5646;SDS011;2845;48.626;9.362;2022-09-01T19:48:44;3.67;;;2.30;;
5646;SDS011;2845;48.626;9.362;2022-09-01T19:51:23;4.20;;;2.25;;
5646;SDS011;2845;48.626;9.362;2022-09-01T19:54:07;3.13;;;1.80;;
5646;SDS011;2845;48.626;9.362;2022-09-01T19:56:50;3.00;;;1.90;;
5646;SDS011;2845;48.626;9.362;2022-09-01T19:59:30;3.90;;;1.83;;
5646;SDS011;2845;48.626;9.362;2022-09-01T20:02:22;3.00;;;2.00;;
5646;SDS011;2845;48.626;9.362;2022-09-01T20:05:06;3.08;;;2.05;;
5646;SDS011;2845;48.626;9.362;2022-09-01T20:07:52;4.30;;;2.33;;
5646;SDS011;2845;48.626;9.362;2022-09-01T20:13:37;3.28;;;1.88;;
5646;SDS011;2845;48.626;9.362;2022-09-01T20:16:29;3.17;;;1.90;;
5646;SDS011;2845;48.626;9.362;2022-09-01T20:19:10;3.30;;;2.03;;
5646;SDS011;2845;48.626;9.362;2022-09-01T20:22:02;3.55;;;2.13;;
5646;SDS011;2845;48.626;9.362;2022-09-01T20:25:12;3.28;;;1.98;;
5646;SDS011;2845;48.626;9.362;2022-09-01T20:27:53;5.68;;;2.50;;
5646;SDS011;2845;48.626;9.362;2022-09-01T20:30:35;4.15;;;2.45;;
5646;SDS011;2845;48.626;9.362;2022-09-01T20:33:18;3.28;;;2.33;;
5646;SDS011;2845;48.626;9.362;2022-09-01T20:36:03;4.10;;;2.47;;
5646;SDS011;2845;48.626;9.362;2022-09-01T20:38:46;5.45;;;2.20;;
5646;SDS011;2845;48.626;9.362;2022-09-01T20:41:47;4.87;;;2.43;;
5646;SDS011;2845;48.626;9.362;2022-09-01T20:44:36;3.45;;;2.17;;
5646;SDS011;2845;48.626;9.362;2022-09-01T20:47:19;2.92;;;1.98;;
5646;SDS011;2845;48.626;9.362;2022-09-01T20:50:05;3.35;;;2.08;;
5646;SDS011;2845;48.626;9.362;2022-09-01T20:52:54;4.38;;;2.40;;
5646;SDS011;2845;48.626;9.362;2022-09-01T20:55:53;4.45;;;2.35;;
5646;SDS011;2845;48.626;9.362;2022-09-01T20:58:31;3.28;;;2.20;;
5646;SDS011;2845;48.626;9.362;2022-09-01T21:01:13;4.32;;;2.50;;
5646;SDS011;2845;48.626;9.362;2022-09-01T21:03:57;3.20;;;2.10;;
5646;SDS011;2845;48.626;9.362;2022-09-01T21:06:43;4.40;;;2.13;;
5646;SDS011;2845;48.626;9.362;2022-09-01T21:09:27;3.70;;;2.17;;
5646;SDS011;2845;48.626;9.362;2022-09-01T21:12:15;3.88;;;2.10;;
5646;SDS011;2845;48.626;9.362;2022-09-01T21:15:08;2.97;;;1.98;;
5646;SDS011;2845;48.626;9.362;2022-09-01T21:18:03;3.90;;;2.10;;
5646;SDS011;2845;48.626;9.362;2022-09-01T21:20:55;3.83;;;2.10;;
5646;SDS011;2845;48.626;9.362;2022-09-01T21:23:37;3.03;;;1.88;;
5646;SDS011;2845;48.626;9.362;2022-09-01T21:26:12;3.67;;;2.40;;
5646;SDS011;2845;48.626;9.362;2022-09-01T21:28:50;4.30;;;2.42;;
5646;SDS011;2845;48.626;9.362;2022-09-01T21:31:28;4.13;;;2.00;;
5646;SDS011;2845;48.626;9.362;2022-09-01T21:34:05;4.05;;;2.42;;
5646;SDS011;2845;48.626;9.362;2022-09-01T21:36:46;3.33;;;2.17;;
5646;SDS011;2845;48.626;9.362;2022-09-01T21:39:28;4.35;;;2.78;;
5646;SDS011;2845;48.626;9.362;2022-09-01T21:42:03;5.32;;;2.35;;
5646;SDS011;2845;48.626;9.362;2022-09-01T21:44:40;4.13;;;2.40;;
5646;SDS011;2845;48.626;9.362;2022-09-01T21:47:16;3.85;;;2.20;;
5646;SDS011;2845;48.626;9.362;2022-09-01T21:50:05;3.50;;;1.80;;